createdAt,value
2018-07-03T00:03:41.381Z,41.50
2018-07-03T00:06:10.872Z,41.60
2018-07-03T00:11:09.688Z,41.80
2018-07-03T00:13:39.757Z,41.80
2018-07-03T00:16:14.535Z,41.90
2018-07-03T00:18:44.483Z,42.00
2018-07-03T00:21:13.676Z,41.90
2018-07-03T00:23:43.227Z,42.10
2018-07-03T00:26:12.621Z,42.10
2018-07-03T00:28:42.573Z,42.30
2018-07-03T00:31:11.976Z,42.40
2018-07-03T00:33:41.431Z,42.40
2018-07-03T00:36:10.954Z,42.40
2018-07-03T00:38:39.883Z,42.50
2018-07-03T00:41:10.057Z,42.60
2018-07-03T00:43:39.017Z,42.80
2018-07-03T00:46:07.967Z,42.90
2018-07-03T00:48:37.458Z,43.00
2018-07-03T00:51:06.829Z,43.10
2018-07-03T00:53:35.966Z,43.20
2018-07-03T00:56:05.052Z,43.20
2018-07-03T00:58:36.655Z,43.40
2018-07-03T01:01:06.122Z,43.40
2018-07-03T01:03:35.275Z,43.50
2018-07-03T01:06:05.224Z,43.50
2018-07-03T01:08:35.442Z,43.70
2018-07-03T01:11:04.729Z,43.80
2018-07-03T01:13:35.590Z,43.90
2018-07-03T01:16:05.473Z,44.00
2018-07-03T01:18:34.853Z,44.10
2018-07-03T01:21:04.344Z,44.20
2018-07-03T01:23:33.468Z,44.30
2018-07-03T01:26:02.573Z,44.30
2018-07-03T01:28:31.702Z,44.50
2018-07-03T01:31:00.888Z,44.50
2018-07-03T01:33:31.636Z,44.60
2018-07-03T01:36:01.030Z,44.80
2018-07-03T01:38:30.647Z,44.90
2018-07-03T01:40:59.905Z,45.00
2018-07-03T01:43:29.054Z,45.10
2018-07-03T01:45:58.739Z,45.20
2018-07-03T01:48:27.985Z,45.40
2018-07-03T01:50:57.879Z,45.60
2018-07-03T01:53:27.320Z,45.80
2018-07-03T01:55:56.208Z,45.80
2018-07-03T01:58:25.959Z,46.00
2018-07-03T02:00:55.347Z,46.00
2018-07-03T02:03:24.702Z,46.20
2018-07-03T02:05:54.766Z,46.20
2018-07-03T02:08:24.693Z,46.30
2018-07-03T02:10:53.674Z,46.40
2018-07-03T02:13:22.868Z,46.50
2018-07-03T02:15:52.559Z,46.70
2018-07-03T02:20:49.956Z,47.40
2018-07-03T02:23:18.159Z,47.00
2018-07-03T02:25:46.391Z,47.20
2018-07-03T02:28:14.611Z,47.10
2018-07-03T02:30:44.272Z,47.20
2018-07-03T02:35:42.003Z,47.30
2018-07-03T02:38:10.183Z,47.50
2018-07-03T02:40:38.436Z,47.60
2018-07-03T02:43:06.649Z,47.70
2018-07-03T02:45:34.874Z,47.80
2018-07-03T02:48:03.152Z,47.90
2018-07-03T02:50:31.384Z,48.10
2018-07-03T02:52:59.628Z,48.30
2018-07-03T02:55:27.859Z,48.30
2018-07-03T02:57:56.124Z,48.40
2018-07-03T03:00:24.582Z,48.60
2018-07-03T03:02:52.833Z,48.70
2018-07-03T03:05:21.063Z,48.70
2018-07-03T03:07:49.370Z,48.70
2018-07-03T03:10:17.628Z,48.90
2018-07-03T03:12:45.888Z,49.10
2018-07-03T03:15:14.125Z,49.20
2018-07-03T03:17:42.408Z,49.30
2018-07-03T03:20:10.649Z,49.50
2018-07-03T03:22:38.920Z,49.50
2018-07-03T03:25:07.196Z,49.60
2018-07-03T03:32:31.622Z,50.20
2018-07-03T03:34:59.863Z,50.30
2018-07-03T03:37:28.128Z,50.50
2018-07-03T03:39:56.350Z,50.70
2018-07-03T03:42:24.607Z,50.70
2018-07-03T03:44:52.891Z,50.70
2018-07-03T03:47:21.127Z,50.90
2018-07-03T03:49:49.412Z,50.90
2018-07-03T03:52:17.669Z,50.90
2018-07-03T03:54:45.904Z,50.90
2018-07-03T03:57:14.172Z,51.00
2018-07-03T03:59:42.604Z,51.10
2018-07-03T04:02:10.904Z,51.20
2018-07-03T04:04:39.182Z,51.20
2018-07-03T04:07:07.688Z,51.30
2018-07-03T04:09:35.986Z,51.50
2018-07-03T04:12:04.276Z,51.60
2018-07-03T04:14:32.519Z,51.70
2018-07-03T04:17:00.759Z,51.80
2018-07-03T04:19:29.060Z,51.80
2018-07-03T04:21:57.312Z,51.90
2018-07-03T04:24:25.601Z,51.90
2018-07-03T04:26:53.811Z,51.90
2018-07-03T04:29:22.159Z,51.90
2018-07-03T04:31:50.403Z,51.90
2018-07-03T04:34:18.632Z,51.80
2018-07-03T04:36:46.904Z,52.00
2018-07-03T04:39:15.152Z,52.00
2018-07-03T04:41:43.379Z,52.00
2018-07-03T04:44:11.715Z,52.10
2018-07-03T04:46:39.956Z,52.10
2018-07-03T04:49:08.179Z,52.20
2018-07-03T04:51:36.468Z,52.40
2018-07-03T04:54:04.743Z,52.40
2018-07-03T04:56:33.011Z,52.30
2018-07-03T04:59:01.324Z,52.50
2018-07-03T05:01:29.612Z,52.40
2018-07-03T05:03:58.089Z,52.40
2018-07-03T05:06:26.335Z,52.40
2018-07-03T05:08:54.595Z,52.40
2018-07-03T05:11:22.927Z,52.30
2018-07-03T05:13:51.292Z,52.40
2018-07-03T05:18:47.547Z,52.40
2018-07-03T05:21:15.796Z,52.50
2018-07-03T05:23:44.055Z,52.50
2018-07-03T05:26:12.322Z,52.50
2018-07-03T05:28:40.582Z,52.50
2018-07-03T05:31:09.120Z,52.50
2018-07-03T05:33:38.151Z,52.60
2018-07-03T05:36:09.339Z,52.60
2018-07-03T05:38:38.198Z,52.60
2018-07-03T05:41:07.880Z,52.60
2018-07-03T05:43:36.882Z,52.80
2018-07-03T05:46:05.631Z,53.40
2018-07-03T05:48:34.424Z,52.70
2018-07-03T05:51:03.631Z,52.90
2018-07-03T05:53:32.809Z,52.80
2018-07-03T05:56:02.650Z,52.80
2018-07-03T05:58:31.391Z,52.80
2018-07-03T06:01:00.346Z,52.80
2018-07-03T06:03:29.301Z,52.80
2018-07-03T06:05:58.156Z,52.70
2018-07-03T06:08:28.044Z,52.70
2018-07-03T06:11:00.615Z,52.60
2018-07-03T06:13:31.008Z,52.50
2018-07-03T06:15:59.340Z,52.40
2018-07-03T06:18:27.599Z,52.40
2018-07-03T06:23:24.008Z,52.00
2018-07-03T06:25:52.256Z,51.70
2018-07-03T06:28:20.514Z,51.60
2018-07-03T06:30:48.753Z,51.50
2018-07-03T06:33:17.023Z,51.40
2018-07-03T06:35:45.291Z,51.30
2018-07-03T06:38:13.512Z,51.20
2018-07-03T06:40:42.059Z,51.30
2018-07-03T06:43:10.037Z,50.90
2018-07-03T06:45:38.311Z,50.60
2018-07-03T06:48:06.581Z,50.40
2018-07-03T06:50:35.182Z,50.30
2018-07-03T06:53:03.444Z,50.20
2018-07-03T06:55:31.920Z,50.00
2018-07-03T06:58:00.124Z,49.90
2018-07-03T07:00:28.305Z,49.70
2018-07-03T07:05:27.525Z,49.20
2018-07-03T07:07:55.795Z,49.00
2018-07-03T07:10:24.066Z,48.80
2018-07-03T07:12:52.312Z,48.80
2018-07-03T07:15:20.594Z,48.40
2018-07-03T07:17:48.852Z,48.30
2018-07-03T07:20:17.197Z,48.30
2018-07-03T07:22:45.489Z,48.20
2018-07-03T07:25:13.785Z,48.00
2018-07-03T07:27:42.017Z,47.80
2018-07-03T07:32:38.249Z,47.70
2018-07-03T07:35:06.491Z,47.50
2018-07-03T07:37:34.772Z,47.40
2018-07-03T07:40:03.048Z,47.10
2018-07-03T07:42:31.302Z,46.80
2018-07-03T07:44:59.566Z,46.80
2018-07-03T07:50:02.429Z,46.90
2018-07-03T07:52:30.687Z,46.70
2018-07-03T07:54:58.960Z,46.50
2018-07-03T07:57:27.252Z,46.40
2018-07-03T07:59:55.552Z,46.30
2018-07-03T08:02:23.825Z,46.30
2018-07-03T08:04:52.112Z,46.20
2018-07-03T08:07:20.363Z,45.80
2018-07-03T08:09:48.648Z,45.90
2018-07-03T08:12:16.907Z,45.70
2018-07-03T08:14:45.154Z,45.40
2018-07-03T08:17:13.423Z,45.30
2018-07-03T08:19:41.756Z,45.20
2018-07-03T08:22:10.044Z,45.30
2018-07-03T08:24:38.292Z,45.30
2018-07-03T08:27:06.581Z,45.00
2018-07-03T08:29:35.076Z,44.70
2018-07-03T08:32:03.359Z,44.50
2018-07-03T08:34:31.617Z,44.40
2018-07-03T08:36:59.864Z,44.90
2018-07-03T08:39:28.163Z,44.00
2018-07-03T08:41:56.407Z,44.00
2018-07-03T08:44:24.671Z,43.60
2018-07-03T08:46:52.960Z,43.40
2018-07-03T08:49:21.259Z,43.30
2018-07-03T08:51:49.645Z,43.20
2018-07-03T08:54:17.825Z,43.10
2018-07-03T08:56:46.110Z,42.90
2018-07-03T08:59:14.375Z,42.80
2018-07-03T09:01:42.605Z,42.40
2018-07-03T09:04:10.880Z,42.40
2018-07-03T09:06:39.156Z,42.40
2018-07-03T09:09:08.919Z,41.70
2018-07-03T09:11:37.298Z,41.60
2018-07-03T09:16:33.928Z,41.40
2018-07-03T09:19:02.232Z,41.70
2018-07-03T09:21:30.472Z,41.60
2018-07-03T09:23:58.767Z,41.00
2018-07-03T09:26:27.045Z,40.70
2018-07-03T09:28:55.303Z,40.60
2018-07-03T09:31:23.595Z,40.40
2018-07-03T09:33:51.872Z,40.00
2018-07-03T09:36:20.153Z,39.40
2018-07-03T09:38:48.463Z,39.00
2018-07-03T09:41:16.760Z,39.20
2018-07-03T09:43:45.059Z,39.10
2018-07-03T09:46:13.317Z,38.30
2018-07-03T09:48:41.584Z,37.60
2018-07-03T09:51:09.816Z,37.30
2018-07-03T09:53:38.103Z,36.90
2018-07-03T09:56:06.397Z,37.10
2018-07-03T09:58:34.667Z,36.50
2018-07-03T10:01:07.198Z,36.40
2018-07-03T10:03:35.419Z,35.80
2018-07-03T10:06:03.696Z,35.40
2018-07-03T10:08:32.029Z,35.30
2018-07-03T10:11:00.360Z,35.00
2018-07-03T10:13:28.636Z,34.50
2018-07-03T10:15:57.789Z,34.70
2018-07-03T10:18:26.087Z,34.80
2018-07-03T10:20:54.396Z,34.60
2018-07-03T10:23:22.662Z,34.00
2018-07-03T10:25:50.880Z,34.60
2018-07-03T10:28:19.128Z,34.40
2018-07-03T10:30:47.366Z,34.50
2018-07-03T10:33:15.644Z,34.20
2018-07-03T10:35:44.827Z,34.30
2018-07-03T10:38:13.125Z,34.10
2018-07-03T10:40:41.562Z,33.90
2018-07-03T10:43:09.817Z,33.80
2018-07-03T10:50:34.171Z,32.50
2018-07-03T10:53:02.491Z,33.00
2018-07-03T10:55:30.736Z,33.00
2018-07-03T10:57:58.991Z,32.70
2018-07-03T11:00:27.253Z,32.60
2018-07-03T11:02:55.572Z,32.20
2018-07-03T11:05:24.147Z,31.90
2018-07-03T11:07:52.379Z,31.70
2018-07-03T11:10:20.789Z,31.40
2018-07-03T11:12:49.081Z,31.50
2018-07-03T11:17:45.296Z,31.00
2018-07-03T11:20:13.643Z,30.70
2018-07-03T11:22:41.880Z,30.20
2018-07-03T11:25:10.175Z,30.00
2018-07-03T11:27:38.475Z,30.20
2018-07-03T11:30:07.019Z,30.10
2018-07-03T11:35:03.337Z,30.40
2018-07-03T11:37:31.572Z,30.50
2018-07-03T11:39:59.913Z,30.40
2018-07-03T11:42:28.156Z,30.40
2018-07-03T11:44:56.437Z,30.40
2018-07-03T11:47:24.934Z,30.30
2018-07-03T11:49:53.180Z,30.00
2018-07-03T11:52:21.472Z,30.00
2018-07-03T11:54:49.714Z,29.90
2018-07-03T11:57:17.983Z,29.60
2018-07-03T11:59:46.203Z,29.60
2018-07-03T12:02:14.472Z,29.50
2018-07-03T12:04:42.744Z,29.50
2018-07-03T12:07:10.993Z,29.50
2018-07-03T12:09:39.440Z,29.40
2018-07-03T12:12:07.798Z,29.30
2018-07-03T12:17:04.089Z,29.20
2018-07-03T12:19:32.372Z,29.10
2018-07-03T12:22:00.628Z,28.90
2018-07-03T12:24:28.956Z,28.70
2018-07-03T12:26:57.246Z,28.80
2018-07-03T12:29:25.563Z,28.50
2018-07-03T12:31:53.808Z,28.60
2018-07-03T12:34:22.080Z,28.60
2018-07-03T12:36:50.361Z,28.60
2018-07-03T12:39:18.728Z,28.60
2018-07-03T12:41:46.996Z,28.40
2018-07-03T12:44:15.248Z,28.20
2018-07-03T12:46:43.496Z,28.30
2018-07-03T12:49:11.811Z,28.10
2018-07-03T12:51:40.055Z,27.90
2018-07-03T12:54:08.321Z,27.80
2018-07-03T12:56:36.564Z,27.80
2018-07-03T12:59:04.879Z,27.70
2018-07-03T13:01:33.224Z,27.70
2018-07-03T13:04:01.500Z,27.90
2018-07-03T13:06:29.781Z,27.90
2018-07-03T13:08:58.078Z,28.00
2018-07-03T13:11:26.357Z,28.20
2018-07-03T13:13:54.696Z,27.90
2018-07-03T13:16:22.943Z,27.90
2018-07-03T13:21:19.289Z,28.00
2018-07-03T13:23:47.539Z,28.50
2018-07-03T13:26:15.835Z,28.00
2018-07-03T13:31:12.149Z,27.90
2018-07-03T13:33:40.424Z,28.00
2018-07-03T13:36:08.724Z,27.80
2018-07-03T13:38:37.069Z,27.50
2018-07-03T13:41:05.333Z,27.50
2018-07-03T13:43:33.648Z,27.60
2018-07-03T13:48:29.984Z,27.70
2018-07-03T13:50:58.256Z,27.40
2018-07-03T13:53:26.552Z,26.70
2018-07-03T13:55:54.824Z,26.10
2018-07-03T13:58:23.169Z,25.00
2018-07-03T14:00:51.607Z,23.90
2018-07-03T14:03:19.875Z,22.80
2018-07-03T14:05:48.168Z,21.70
2018-07-03T14:08:16.380Z,20.20
2018-07-03T14:10:44.615Z,20.40
2018-07-03T14:13:12.864Z,20.20
2018-07-03T14:15:41.127Z,19.60
2018-07-03T14:18:09.394Z,18.70
2018-07-03T14:20:37.673Z,18.20
2018-07-03T14:23:05.930Z,17.50
2018-07-03T14:25:34.393Z,17.60
2018-07-03T14:30:30.727Z,17.00
2018-07-03T14:32:58.994Z,16.20
2018-07-03T14:35:27.263Z,15.90
2018-07-03T14:37:55.949Z,15.30
2018-07-03T14:40:24.222Z,15.50
2018-07-03T14:42:52.495Z,15.30
2018-07-03T14:45:20.860Z,14.80
2018-07-03T14:47:49.107Z,14.80
2018-07-03T14:50:17.480Z,14.70
2018-07-03T14:52:45.757Z,14.60
2018-07-03T14:55:14.016Z,14.20
2018-07-03T14:57:42.284Z,14.10
2018-07-03T15:02:38.658Z,14.30
2018-07-03T15:05:06.954Z,14.10
2018-07-03T15:07:35.272Z,14.10
2018-07-03T15:10:03.549Z,13.80
2018-07-03T15:12:31.830Z,13.50
2018-07-03T15:15:00.142Z,13.50
2018-07-03T15:17:28.356Z,13.50
2018-07-03T15:19:58.224Z,13.60
2018-07-03T15:22:26.501Z,13.30
2018-07-03T15:24:54.828Z,13.20
2018-07-03T15:27:23.138Z,13.20
2018-07-03T15:29:51.400Z,13.10
2018-07-03T15:32:19.676Z,13.30
2018-07-03T15:34:47.965Z,13.30
2018-07-03T15:37:16.232Z,13.10
2018-07-03T15:39:44.590Z,13.20
2018-07-03T15:42:12.804Z,13.40
2018-07-03T15:44:52.540Z,13.10
2018-07-03T15:47:20.803Z,13.10
2018-07-03T15:49:49.055Z,13.40
2018-07-03T15:52:17.312Z,13.30
2018-07-03T15:54:45.632Z,13.40
2018-07-03T15:57:13.883Z,13.70
2018-07-03T15:59:42.152Z,14.10
2018-07-03T16:02:10.460Z,14.40
2018-07-03T16:05:47.171Z,14.70
2018-07-03T16:08:28.667Z,15.20
2018-07-03T16:10:57.006Z,15.80
2018-07-03T16:13:25.253Z,16.30
2018-07-03T16:15:53.521Z,17.10
2018-07-03T16:18:21.796Z,17.50
2018-07-03T16:20:50.084Z,17.70
2018-07-03T16:23:18.327Z,18.30
2018-07-03T16:25:46.640Z,18.80
2018-07-03T16:28:15.016Z,19.20
2018-07-03T16:30:44.060Z,19.50
2018-07-03T16:33:13.343Z,19.60
2018-07-03T16:35:42.857Z,19.80
2018-07-03T16:38:13.581Z,20.80
2018-07-03T16:40:42.893Z,20.60
2018-07-03T16:43:13.042Z,20.40
2018-07-03T16:45:42.162Z,20.50
2018-07-03T16:48:11.286Z,20.70
2018-07-03T16:50:39.534Z,20.80
2018-07-03T16:53:07.858Z,21.10
2018-07-03T16:55:36.093Z,21.20
2018-07-03T17:00:32.372Z,21.50
2018-07-03T17:03:00.626Z,21.50
2018-07-03T17:05:28.900Z,21.50
2018-07-03T17:07:57.183Z,21.80
2018-07-03T17:10:25.475Z,22.00
2018-07-03T17:12:54.769Z,22.00
2018-07-03T17:15:24.168Z,22.00
2018-07-03T17:17:52.499Z,22.20
2018-07-03T17:20:20.840Z,22.20
2018-07-03T17:22:49.100Z,22.20
2018-07-03T17:25:17.330Z,22.30
2018-07-03T17:27:46.782Z,22.30
2018-07-03T17:30:16.299Z,21.90
2018-07-03T17:32:45.473Z,20.60
2018-07-03T17:37:44.335Z,19.60
2018-07-03T17:40:24.584Z,20.00
2018-07-03T17:45:36.162Z,20.60
2018-07-03T17:48:07.881Z,21.00
2018-07-03T17:50:37.775Z,21.30
2018-07-03T17:53:07.033Z,21.60
2018-07-03T17:55:36.103Z,21.40
2018-07-03T18:00:34.364Z,19.90
2018-07-03T18:03:03.794Z,19.50
2018-07-03T18:05:32.846Z,19.10
2018-07-03T18:08:01.918Z,18.70
2018-07-03T18:10:31.142Z,18.40
2018-07-03T18:13:00.337Z,18.60
2018-07-03T18:15:29.723Z,18.50
2018-07-03T18:17:59.171Z,18.30
2018-07-03T18:20:29.097Z,18.20
2018-07-03T18:22:58.844Z,18.90
2018-07-03T18:25:28.693Z,19.90
2018-07-03T18:27:58.681Z,20.60
2018-07-03T18:30:27.932Z,21.40
2018-07-03T18:32:57.956Z,22.20
2018-07-03T18:35:27.116Z,22.80
2018-07-03T18:37:56.498Z,23.70
2018-07-03T18:40:25.392Z,24.70
2018-07-03T18:42:54.738Z,25.40
2018-07-03T18:45:23.676Z,26.30
2018-07-03T18:47:53.066Z,25.80
2018-07-03T18:50:22.346Z,25.50
2018-07-03T18:52:51.881Z,26.50
2018-07-03T18:55:21.008Z,27.00
2018-07-03T18:57:50.267Z,27.30
2018-07-03T19:00:19.629Z,27.70
2018-07-03T19:02:49.533Z,27.40
2018-07-03T19:05:18.609Z,27.50
2018-07-03T19:07:47.816Z,27.40
2018-07-03T19:10:16.936Z,27.30
2018-07-03T19:12:46.659Z,27.80
2018-07-03T19:15:15.795Z,28.20
2018-07-03T19:20:14.637Z,28.80
2018-07-03T19:22:44.028Z,29.30
2018-07-03T19:25:13.135Z,29.70
2018-07-03T19:27:42.753Z,29.80
2018-07-03T19:30:11.717Z,30.00
2018-07-03T19:35:10.270Z,30.90
2018-07-03T19:37:39.859Z,31.40
2018-07-03T19:40:08.949Z,31.80
2018-07-03T19:42:47.737Z,32.00
2018-07-03T19:45:17.653Z,32.30
2018-07-03T19:47:46.789Z,32.90
2018-07-03T19:50:15.905Z,33.40
2018-07-03T19:52:45.467Z,33.70
2018-07-03T19:55:15.075Z,34.00
2018-07-03T19:57:44.196Z,34.20
2018-07-03T20:00:13.565Z,34.50
2018-07-03T20:02:42.484Z,34.90
2018-07-03T20:05:11.688Z,35.30
2018-07-03T20:07:40.723Z,35.60
2018-07-03T20:10:09.410Z,36.00
2018-07-03T20:12:39.025Z,36.40
2018-07-03T20:15:07.923Z,36.70
2018-07-03T20:17:36.967Z,37.10
2018-07-03T20:20:06.430Z,37.30
2018-07-03T20:22:36.311Z,37.50
2018-07-03T20:25:05.847Z,37.90
2018-07-03T20:27:35.300Z,38.00
2018-07-03T20:30:06.134Z,38.40
2018-07-03T20:32:35.147Z,38.60
2018-07-03T20:35:05.224Z,38.80
2018-07-03T20:40:14.022Z,39.20
2018-07-03T20:42:43.125Z,39.50
2018-07-03T20:45:12.443Z,39.70
2018-07-03T20:50:10.229Z,40.10
2018-07-03T20:52:39.305Z,40.30
2018-07-03T20:55:08.207Z,40.40
2018-07-03T20:57:38.377Z,40.70
2018-07-03T21:00:08.141Z,40.80
2018-07-03T21:02:37.975Z,41.10
2018-07-03T21:05:07.412Z,41.20
2018-07-03T21:07:37.598Z,41.40
2018-07-03T21:10:06.925Z,41.60
2018-07-03T21:12:36.900Z,41.90
2018-07-03T21:15:06.256Z,42.10
2018-07-03T21:17:35.628Z,42.20
2018-07-03T21:20:05.728Z,42.50
2018-07-03T21:22:35.044Z,42.60
2018-07-03T21:27:34.116Z,42.90
2018-07-03T21:30:03.356Z,43.10
2018-07-03T21:32:32.995Z,43.20
2018-07-03T21:35:01.888Z,43.50
2018-07-03T21:37:31.454Z,43.70
2018-07-03T21:40:01.068Z,43.80
2018-07-03T21:44:59.253Z,44.30
2018-07-03T21:47:28.554Z,44.40
2018-07-03T21:52:26.376Z,44.80
2018-07-03T21:54:55.653Z,44.90
2018-07-03T21:57:25.522Z,45.00
2018-07-03T21:59:54.371Z,45.30
2018-07-03T22:04:52.440Z,45.50
2018-07-03T22:09:50.650Z,45.80
2018-07-03T22:12:19.903Z,45.90
2018-07-03T22:14:49.632Z,46.00
2018-07-03T22:17:18.857Z,46.20
2018-07-03T22:19:48.398Z,46.30
2018-07-03T22:22:17.768Z,46.40
2018-07-03T22:24:47.369Z,46.50
2018-07-03T22:27:16.676Z,46.60
2018-07-03T22:29:45.697Z,46.70
2018-07-03T22:32:15.727Z,46.80
2018-07-03T22:34:44.558Z,46.80
2018-07-03T22:37:14.413Z,46.90
2018-07-03T22:39:43.776Z,47.00
2018-07-03T22:42:13.033Z,47.10
2018-07-03T22:44:42.888Z,47.10
2018-07-03T22:47:12.253Z,47.40
2018-07-03T22:49:41.787Z,47.40
2018-07-03T22:52:11.300Z,47.50
2018-07-03T22:54:40.673Z,47.60
2018-07-03T22:57:09.955Z,47.60
2018-07-03T22:59:39.622Z,47.70
2018-07-03T23:02:09.188Z,47.70
2018-07-03T23:04:38.734Z,48.00
2018-07-03T23:07:08.042Z,47.90
2018-07-03T23:09:37.283Z,48.40
2018-07-03T23:12:06.623Z,48.00
2018-07-03T23:14:35.895Z,48.00
2018-07-03T23:17:04.728Z,48.10
2018-07-03T23:19:33.643Z,48.10
2018-07-03T23:22:02.830Z,48.20
2018-07-03T23:27:00.713Z,48.30
2018-07-03T23:29:30.636Z,48.30
2018-07-03T23:32:00.107Z,48.30
2018-07-03T23:34:29.800Z,48.50
2018-07-03T23:36:58.975Z,48.70
2018-07-03T23:39:28.549Z,48.90
2018-07-03T23:44:26.912Z,48.80
2018-07-03T23:47:07.102Z,48.80
2018-07-03T23:52:21.466Z,49.00
2018-07-03T23:55:01.372Z,49.10
2018-07-03T23:57:41.527Z,49.10
